sensor_id;sensor_type;location;lat;lon;timestamp;P1;durP1;ratioP1;P2;durP2;ratioP2
9256;SDS011;4665;51.368;6.782;2022-10-16T00:02:00;3.30;;;2.90;;
9256;SDS011;4665;51.368;6.782;2022-10-16T00:04:26;4.07;;;3.20;;
9256;SDS011;4665;51.368;6.782;2022-10-16T00:06:51;3.70;;;3.30;;
9256;SDS011;4665;51.368;6.782;2022-10-16T00:09:17;3.60;;;3.20;;
9256;SDS011;4665;51.368;6.782;2022-10-16T00:11:42;9.00;;;3.60;;
9256;SDS011;4665;51.368;6.782;2022-10-16T00:14:09;4.30;;;3.30;;
9256;SDS011;4665;51.368;6.782;2022-10-16T00:16:37;3.20;;;3.00;;
9256;SDS011;4665;51.368;6.782;2022-10-16T00:19:03;4.23;;;3.50;;
9256;SDS011;4665;51.368;6.782;2022-10-16T00:21:30;4.00;;;3.60;;
9256;SDS011;4665;51.368;6.782;2022-10-16T00:23:57;5.93;;;3.50;;
9256;SDS011;4665;51.368;6.782;2022-10-16T00:26:24;3.70;;;3.40;;
9256;SDS011;4665;51.368;6.782;2022-10-16T00:28:51;4.10;;;2.80;;
9256;SDS011;4665;51.368;6.782;2022-10-16T00:31:20;6.90;;;3.37;;
9256;SDS011;4665;51.368;6.782;2022-10-16T00:33:47;3.90;;;3.60;;
9256;SDS011;4665;51.368;6.782;2022-10-16T00:36:16;4.43;;;4.03;;
9256;SDS011;4665;51.368;6.782;2022-10-16T00:38:46;4.97;;;4.20;;
9256;SDS011;4665;51.368;6.782;2022-10-16T00:41:15;5.17;;;4.47;;
9256;SDS011;4665;51.368;6.782;2022-10-16T00:46:13;6.43;;;5.67;;
9256;SDS011;4665;51.368;6.782;2022-10-16T00:48:39;6.20;;;5.60;;
9256;SDS011;4665;51.368;6.782;2022-10-16T00:51:06;7.33;;;5.47;;
9256;SDS011;4665;51.368;6.782;2022-10-16T00:53:32;6.70;;;5.97;;
9256;SDS011;4665;51.368;6.782;2022-10-16T00:55:58;7.20;;;5.30;;
9256;SDS011;4665;51.368;6.782;2022-10-16T00:58:24;6.27;;;4.50;;
9256;SDS011;4665;51.368;6.782;2022-10-16T01:00:52;6.33;;;4.07;;
9256;SDS011;4665;51.368;6.782;2022-10-16T01:03:26;4.43;;;3.17;;
9256;SDS011;4665;51.368;6.782;2022-10-16T01:08:55;3.67;;;3.30;;
9256;SDS011;4665;51.368;6.782;2022-10-16T01:17:03;4.07;;;3.67;;
9256;SDS011;4665;51.368;6.782;2022-10-16T01:22:14;5.80;;;3.63;;
9256;SDS011;4665;51.368;6.782;2022-10-16T01:24:43;4.07;;;3.67;;
9256;SDS011;4665;51.368;6.782;2022-10-16T01:27:14;4.50;;;3.57;;
9256;SDS011;4665;51.368;6.782;2022-10-16T01:32:21;5.20;;;4.80;;
9256;SDS011;4665;51.368;6.782;2022-10-16T01:37:44;4.67;;;4.20;;
9256;SDS011;4665;51.368;6.782;2022-10-16T01:40:16;5.80;;;4.03;;
9256;SDS011;4665;51.368;6.782;2022-10-16T01:42:46;3.80;;;3.50;;
9256;SDS011;4665;51.368;6.782;2022-10-16T01:45:15;4.93;;;3.50;;
9256;SDS011;4665;51.368;6.782;2022-10-16T01:47:45;4.27;;;3.27;;
9256;SDS011;4665;51.368;6.782;2022-10-16T01:50:13;2.90;;;2.70;;
9256;SDS011;4665;51.368;6.782;2022-10-16T01:52:42;2.83;;;2.63;;
9256;SDS011;4665;51.368;6.782;2022-10-16T01:55:10;3.77;;;2.67;;
9256;SDS011;4665;51.368;6.782;2022-10-16T01:57:40;6.30;;;2.13;;
9256;SDS011;4665;51.368;6.782;2022-10-16T02:00:12;3.13;;;2.00;;
9256;SDS011;4665;51.368;6.782;2022-10-16T02:02:40;3.37;;;2.17;;
9256;SDS011;4665;51.368;6.782;2022-10-16T02:07:52;2.60;;;2.40;;
9256;SDS011;4665;51.368;6.782;2022-10-16T02:10:17;2.00;;;1.90;;
9256;SDS011;4665;51.368;6.782;2022-10-16T02:12:46;2.00;;;1.90;;
9256;SDS011;4665;51.368;6.782;2022-10-16T02:15:16;3.00;;;2.30;;
9256;SDS011;4665;51.368;6.782;2022-10-16T02:17:41;2.53;;;2.10;;
9256;SDS011;4665;51.368;6.782;2022-10-16T02:20:07;4.20;;;2.07;;
9256;SDS011;4665;51.368;6.782;2022-10-16T02:22:34;2.10;;;1.93;;
9256;SDS011;4665;51.368;6.782;2022-10-16T02:25:22;2.00;;;1.90;;
9256;SDS011;4665;51.368;6.782;2022-10-16T02:30:30;2.40;;;2.20;;
9256;SDS011;4665;51.368;6.782;2022-10-16T02:33:01;2.97;;;2.63;;
9256;SDS011;4665;51.368;6.782;2022-10-16T02:35:30;2.30;;;2.10;;
9256;SDS011;4665;51.368;6.782;2022-10-16T02:37:57;2.20;;;2.03;;
9256;SDS011;4665;51.368;6.782;2022-10-16T02:40:24;1.90;;;1.80;;
9256;SDS011;4665;51.368;6.782;2022-10-16T02:42:51;1.97;;;1.87;;
9256;SDS011;4665;51.368;6.782;2022-10-16T02:45:18;2.00;;;1.90;;
9256;SDS011;4665;51.368;6.782;2022-10-16T02:47:44;2.77;;;1.83;;
9256;SDS011;4665;51.368;6.782;2022-10-16T02:50:09;2.27;;;2.07;;
9256;SDS011;4665;51.368;6.782;2022-10-16T02:52:35;1.73;;;1.43;;
9256;SDS011;4665;51.368;6.782;2022-10-16T02:55:00;1.90;;;1.77;;
9256;SDS011;4665;51.368;6.782;2022-10-16T02:57:26;2.30;;;1.77;;
9256;SDS011;4665;51.368;6.782;2022-10-16T02:59:52;2.37;;;2.17;;
9256;SDS011;4665;51.368;6.782;2022-10-16T03:02:17;1.93;;;1.70;;
9256;SDS011;4665;51.368;6.782;2022-10-16T03:04:43;2.17;;;2.00;;
9256;SDS011;4665;51.368;6.782;2022-10-16T03:07:08;2.13;;;1.80;;
9256;SDS011;4665;51.368;6.782;2022-10-16T03:09:37;3.40;;;1.90;;
9256;SDS011;4665;51.368;6.782;2022-10-16T03:12:02;3.00;;;2.00;;
9256;SDS011;4665;51.368;6.782;2022-10-16T03:14:28;1.73;;;1.63;;
9256;SDS011;4665;51.368;6.782;2022-10-16T03:16:54;1.90;;;1.77;;
9256;SDS011;4665;51.368;6.782;2022-10-16T03:19:19;1.80;;;1.70;;
9256;SDS011;4665;51.368;6.782;2022-10-16T03:21:47;4.60;;;1.70;;
9256;SDS011;4665;51.368;6.782;2022-10-16T03:24:13;2.10;;;1.70;;
9256;SDS011;4665;51.368;6.782;2022-10-16T03:26:38;1.50;;;1.40;;
9256;SDS011;4665;51.368;6.782;2022-10-16T03:29:04;1.30;;;1.20;;
9256;SDS011;4665;51.368;6.782;2022-10-16T03:31:31;1.77;;;1.67;;
9256;SDS011;4665;51.368;6.782;2022-10-16T03:33:57;1.90;;;1.80;;
9256;SDS011;4665;51.368;6.782;2022-10-16T03:36:23;2.10;;;1.90;;
9256;SDS011;4665;51.368;6.782;2022-10-16T03:38:48;1.60;;;1.50;;
9256;SDS011;4665;51.368;6.782;2022-10-16T03:41:16;1.90;;;1.70;;
9256;SDS011;4665;51.368;6.782;2022-10-16T03:43:41;1.70;;;1.60;;
9256;SDS011;4665;51.368;6.782;2022-10-16T03:46:07;2.33;;;1.47;;
9256;SDS011;4665;51.368;6.782;2022-10-16T03:48:32;1.43;;;1.40;;
9256;SDS011;4665;51.368;6.782;2022-10-16T03:51:00;1.60;;;1.50;;
9256;SDS011;4665;51.368;6.782;2022-10-16T03:53:26;1.67;;;1.57;;
9256;SDS011;4665;51.368;6.782;2022-10-16T03:55:51;1.33;;;1.30;;
9256;SDS011;4665;51.368;6.782;2022-10-16T03:58:17;1.80;;;1.70;;
9256;SDS011;4665;51.368;6.782;2022-10-16T04:00:45;3.63;;;1.20;;
9256;SDS011;4665;51.368;6.782;2022-10-16T04:03:12;1.53;;;1.43;;
9256;SDS011;4665;51.368;6.782;2022-10-16T04:05:37;2.40;;;1.40;;
9256;SDS011;4665;51.368;6.782;2022-10-16T04:08:03;1.73;;;1.63;;
9256;SDS011;4665;51.368;6.782;2022-10-16T04:10:28;1.60;;;1.47;;
9256;SDS011;4665;51.368;6.782;2022-10-16T04:12:54;1.63;;;1.53;;
9256;SDS011;4665;51.368;6.782;2022-10-16T04:15:20;1.50;;;1.40;;
9256;SDS011;4665;51.368;6.782;2022-10-16T04:17:49;3.70;;;1.60;;
9256;SDS011;4665;51.368;6.782;2022-10-16T04:20:15;1.70;;;1.60;;
9256;SDS011;4665;51.368;6.782;2022-10-16T04:22:40;1.43;;;1.33;;
9256;SDS011;4665;51.368;6.782;2022-10-16T04:25:06;2.00;;;1.60;;
9256;SDS011;4665;51.368;6.782;2022-10-16T04:27:32;1.50;;;1.40;;
9256;SDS011;4665;51.368;6.782;2022-10-16T04:29:58;3.57;;;1.53;;
9256;SDS011;4665;51.368;6.782;2022-10-16T04:32:24;2.07;;;1.50;;
9256;SDS011;4665;51.368;6.782;2022-10-16T04:34:49;1.53;;;1.50;;
9256;SDS011;4665;51.368;6.782;2022-10-16T04:37:15;3.23;;;1.70;;
9256;SDS011;4665;51.368;6.782;2022-10-16T04:39:40;1.93;;;1.83;;
9256;SDS011;4665;51.368;6.782;2022-10-16T04:42:06;2.07;;;1.70;;
9256;SDS011;4665;51.368;6.782;2022-10-16T04:44:31;1.83;;;1.73;;
9256;SDS011;4665;51.368;6.782;2022-10-16T04:46:57;2.00;;;1.50;;
9256;SDS011;4665;51.368;6.782;2022-10-16T04:49:23;1.77;;;1.67;;
9256;SDS011;4665;51.368;6.782;2022-10-16T04:51:48;4.73;;;1.93;;
9256;SDS011;4665;51.368;6.782;2022-10-16T04:54:14;3.10;;;2.20;;
9256;SDS011;4665;51.368;6.782;2022-10-16T04:56:39;6.20;;;2.20;;
9256;SDS011;4665;51.368;6.782;2022-10-16T04:59:11;2.30;;;1.50;;
9256;SDS011;4665;51.368;6.782;2022-10-16T05:01:38;2.00;;;1.90;;
9256;SDS011;4665;51.368;6.782;2022-10-16T05:04:03;3.07;;;1.80;;
9256;SDS011;4665;51.368;6.782;2022-10-16T05:06:29;1.63;;;1.53;;
9256;SDS011;4665;51.368;6.782;2022-10-16T05:08:54;2.00;;;1.87;;
9256;SDS011;4665;51.368;6.782;2022-10-16T05:11:20;1.63;;;1.53;;
9256;SDS011;4665;51.368;6.782;2022-10-16T05:13:45;1.90;;;1.73;;
9256;SDS011;4665;51.368;6.782;2022-10-16T05:16:10;2.10;;;2.00;;
9256;SDS011;4665;51.368;6.782;2022-10-16T05:18:36;5.27;;;1.97;;
9256;SDS011;4665;51.368;6.782;2022-10-16T05:21:01;2.00;;;1.80;;
9256;SDS011;4665;51.368;6.782;2022-10-16T05:23:27;1.70;;;1.60;;
9256;SDS011;4665;51.368;6.782;2022-10-16T05:25:56;1.87;;;1.77;;
9256;SDS011;4665;51.368;6.782;2022-10-16T05:28:29;2.10;;;1.90;;
9256;SDS011;4665;51.368;6.782;2022-10-16T05:30:56;2.20;;;1.70;;
9256;SDS011;4665;51.368;6.782;2022-10-16T05:33:22;1.80;;;1.70;;
9256;SDS011;4665;51.368;6.782;2022-10-16T05:35:50;1.73;;;1.63;;
9256;SDS011;4665;51.368;6.782;2022-10-16T05:38:16;3.50;;;1.83;;
9256;SDS011;4665;51.368;6.782;2022-10-16T05:40:41;1.80;;;1.70;;
9256;SDS011;4665;51.368;6.782;2022-10-16T05:43:07;1.60;;;1.50;;
9256;SDS011;4665;51.368;6.782;2022-10-16T05:45:32;1.90;;;1.80;;
9256;SDS011;4665;51.368;6.782;2022-10-16T05:47:59;2.27;;;1.70;;
9256;SDS011;4665;51.368;6.782;2022-10-16T05:50:25;1.90;;;1.80;;
9256;SDS011;4665;51.368;6.782;2022-10-16T05:52:51;2.10;;;2.00;;
9256;SDS011;4665;51.368;6.782;2022-10-16T05:55:16;1.80;;;1.60;;
9256;SDS011;4665;51.368;6.782;2022-10-16T05:57:41;3.90;;;2.10;;
9256;SDS011;4665;51.368;6.782;2022-10-16T06:00:07;1.90;;;1.80;;
9256;SDS011;4665;51.368;6.782;2022-10-16T06:02:33;4.20;;;1.83;;
9256;SDS011;4665;51.368;6.782;2022-10-16T06:04:58;1.83;;;1.73;;
9256;SDS011;4665;51.368;6.782;2022-10-16T06:07:24;2.20;;;1.87;;
9256;SDS011;4665;51.368;6.782;2022-10-16T06:09:49;2.17;;;1.97;;
9256;SDS011;4665;51.368;6.782;2022-10-16T06:12:16;2.03;;;1.93;;
9256;SDS011;4665;51.368;6.782;2022-10-16T06:14:41;2.20;;;2.00;;
9256;SDS011;4665;51.368;6.782;2022-10-16T06:17:07;2.30;;;1.80;;
9256;SDS011;4665;51.368;6.782;2022-10-16T06:19:32;2.83;;;1.90;;
9256;SDS011;4665;51.368;6.782;2022-10-16T06:21:58;3.43;;;2.00;;
9256;SDS011;4665;51.368;6.782;2022-10-16T06:24:23;3.37;;;2.20;;
9256;SDS011;4665;51.368;6.782;2022-10-16T06:26:50;1.93;;;1.83;;
9256;SDS011;4665;51.368;6.782;2022-10-16T06:29:15;2.87;;;1.70;;
9256;SDS011;4665;51.368;6.782;2022-10-16T06:31:43;2.50;;;2.10;;
9256;SDS011;4665;51.368;6.782;2022-10-16T06:34:09;4.20;;;2.80;;
9256;SDS011;4665;51.368;6.782;2022-10-16T06:36:36;2.63;;;2.10;;
9256;SDS011;4665;51.368;6.782;2022-10-16T06:39:03;1.73;;;1.73;;
9256;SDS011;4665;51.368;6.782;2022-10-16T06:41:30;2.27;;;1.93;;
9256;SDS011;4665;51.368;6.782;2022-10-16T06:43:56;2.17;;;1.83;;
9256;SDS011;4665;51.368;6.782;2022-10-16T06:46:24;2.07;;;1.90;;
9256;SDS011;4665;51.368;6.782;2022-10-16T06:48:53;1.70;;;1.60;;
9256;SDS011;4665;51.368;6.782;2022-10-16T06:51:19;2.30;;;2.07;;
9256;SDS011;4665;51.368;6.782;2022-10-16T06:53:47;3.53;;;2.03;;
9256;SDS011;4665;51.368;6.782;2022-10-16T06:56:16;2.43;;;2.07;;
9256;SDS011;4665;51.368;6.782;2022-10-16T06:58:44;2.30;;;2.10;;
9256;SDS011;4665;51.368;6.782;2022-10-16T07:01:10;2.73;;;2.30;;
9256;SDS011;4665;51.368;6.782;2022-10-16T07:03:39;3.33;;;2.20;;
9256;SDS011;4665;51.368;6.782;2022-10-16T07:06:06;5.40;;;2.37;;
9256;SDS011;4665;51.368;6.782;2022-10-16T07:08:37;2.70;;;2.20;;
9256;SDS011;4665;51.368;6.782;2022-10-16T07:11:08;1.90;;;1.80;;
9256;SDS011;4665;51.368;6.782;2022-10-16T07:13:38;2.03;;;1.87;;
9256;SDS011;4665;51.368;6.782;2022-10-16T07:18:32;1.90;;;1.80;;
9256;SDS011;4665;51.368;6.782;2022-10-16T07:21:05;1.90;;;1.80;;
9256;SDS011;4665;51.368;6.782;2022-10-16T07:23:32;1.80;;;1.70;;
9256;SDS011;4665;51.368;6.782;2022-10-16T07:25:58;2.40;;;2.10;;
9256;SDS011;4665;51.368;6.782;2022-10-16T07:28:23;2.00;;;1.63;;
9256;SDS011;4665;51.368;6.782;2022-10-16T07:30:49;2.93;;;1.97;;
9256;SDS011;4665;51.368;6.782;2022-10-16T07:33:15;2.40;;;1.70;;
9256;SDS011;4665;51.368;6.782;2022-10-16T07:35:55;1.90;;;1.80;;
9256;SDS011;4665;51.368;6.782;2022-10-16T07:38:21;1.70;;;1.60;;
9256;SDS011;4665;51.368;6.782;2022-10-16T07:41:12;1.90;;;1.80;;
9256;SDS011;4665;51.368;6.782;2022-10-16T07:43:45;3.33;;;2.10;;
9256;SDS011;4665;51.368;6.782;2022-10-16T07:46:12;2.63;;;1.90;;
9256;SDS011;4665;51.368;6.782;2022-10-16T07:48:39;4.13;;;2.03;;
9256;SDS011;4665;51.368;6.782;2022-10-16T07:51:05;2.00;;;1.90;;
9256;SDS011;4665;51.368;6.782;2022-10-16T07:53:31;2.00;;;1.80;;
9256;SDS011;4665;51.368;6.782;2022-10-16T07:56:01;1.60;;;1.50;;
9256;SDS011;4665;51.368;6.782;2022-10-16T07:58:29;1.63;;;1.50;;
9256;SDS011;4665;51.368;6.782;2022-10-16T08:00:56;1.60;;;1.50;;
9256;SDS011;4665;51.368;6.782;2022-10-16T08:03:22;4.47;;;1.70;;
9256;SDS011;4665;51.368;6.782;2022-10-16T08:05:47;1.80;;;1.70;;
9256;SDS011;4665;51.368;6.782;2022-10-16T08:08:13;1.67;;;1.57;;
9256;SDS011;4665;51.368;6.782;2022-10-16T08:10:40;2.40;;;1.90;;
9256;SDS011;4665;51.368;6.782;2022-10-16T08:13:06;1.87;;;1.53;;
9256;SDS011;4665;51.368;6.782;2022-10-16T08:15:31;2.93;;;1.87;;
9256;SDS011;4665;51.368;6.782;2022-10-16T08:17:57;1.97;;;1.70;;
9256;SDS011;4665;51.368;6.782;2022-10-16T08:20:25;1.70;;;1.50;;
9256;SDS011;4665;51.368;6.782;2022-10-16T08:22:51;3.77;;;1.50;;
9256;SDS011;4665;51.368;6.782;2022-10-16T08:25:17;3.40;;;1.60;;
9256;SDS011;4665;51.368;6.782;2022-10-16T08:27:43;3.60;;;1.70;;
9256;SDS011;4665;51.368;6.782;2022-10-16T08:30:09;3.77;;;1.60;;
9256;SDS011;4665;51.368;6.782;2022-10-16T08:32:35;3.53;;;1.60;;
9256;SDS011;4665;51.368;6.782;2022-10-16T08:35:01;1.90;;;1.53;;
9256;SDS011;4665;51.368;6.782;2022-10-16T08:37:29;2.13;;;1.80;;
9256;SDS011;4665;51.368;6.782;2022-10-16T08:39:55;3.23;;;1.57;;
9256;SDS011;4665;51.368;6.782;2022-10-16T08:45:13;1.47;;;1.47;;
9256;SDS011;4665;51.368;6.782;2022-10-16T08:50:29;1.93;;;1.70;;
9256;SDS011;4665;51.368;6.782;2022-10-16T08:52:56;2.87;;;1.63;;
9256;SDS011;4665;51.368;6.782;2022-10-16T08:55:30;1.63;;;1.53;;
9256;SDS011;4665;51.368;6.782;2022-10-16T08:58:05;2.87;;;1.43;;
9256;SDS011;4665;51.368;6.782;2022-10-16T09:00:37;1.67;;;1.30;;
9256;SDS011;4665;51.368;6.782;2022-10-16T09:05:44;1.47;;;1.30;;
9256;SDS011;4665;51.368;6.782;2022-10-16T09:08:28;2.93;;;1.40;;
9256;SDS011;4665;51.368;6.782;2022-10-16T09:11:11;2.93;;;1.17;;
9256;SDS011;4665;51.368;6.782;2022-10-16T09:13:54;2.23;;;1.27;;
9256;SDS011;4665;51.368;6.782;2022-10-16T09:16:30;2.10;;;1.40;;
9256;SDS011;4665;51.368;6.782;2022-10-16T09:22:01;2.70;;;1.40;;
9256;SDS011;4665;51.368;6.782;2022-10-16T09:24:39;1.27;;;1.20;;
9256;SDS011;4665;51.368;6.782;2022-10-16T09:27:08;2.07;;;1.03;;
9256;SDS011;4665;51.368;6.782;2022-10-16T09:29:36;3.57;;;1.40;;
9256;SDS011;4665;51.368;6.782;2022-10-16T09:32:09;2.13;;;1.23;;
9256;SDS011;4665;51.368;6.782;2022-10-16T09:34:39;2.47;;;1.10;;
9256;SDS011;4665;51.368;6.782;2022-10-16T09:37:09;0.97;;;0.93;;
9256;SDS011;4665;51.368;6.782;2022-10-16T09:39:46;1.00;;;1.00;;
9256;SDS011;4665;51.368;6.782;2022-10-16T09:42:17;2.00;;;1.10;;
9256;SDS011;4665;51.368;6.782;2022-10-16T09:44:49;2.57;;;0.87;;
9256;SDS011;4665;51.368;6.782;2022-10-16T09:47:23;1.10;;;1.10;;
9256;SDS011;4665;51.368;6.782;2022-10-16T09:52:16;1.73;;;1.00;;
9256;SDS011;4665;51.368;6.782;2022-10-16T09:54:57;1.80;;;0.80;;
9256;SDS011;4665;51.368;6.782;2022-10-16T09:57:54;1.77;;;1.00;;
9256;SDS011;4665;51.368;6.782;2022-10-16T10:00:20;1.80;;;1.37;;
9256;SDS011;4665;51.368;6.782;2022-10-16T10:02:47;1.57;;;0.80;;
9256;SDS011;4665;51.368;6.782;2022-10-16T10:05:26;1.30;;;0.70;;
9256;SDS011;4665;51.368;6.782;2022-10-16T10:07:54;2.60;;;0.90;;
9256;SDS011;4665;51.368;6.782;2022-10-16T10:10:24;2.37;;;1.13;;
9256;SDS011;4665;51.368;6.782;2022-10-16T10:12:51;1.70;;;1.07;;
9256;SDS011;4665;51.368;6.782;2022-10-16T10:15:18;2.43;;;1.00;;
9256;SDS011;4665;51.368;6.782;2022-10-16T10:17:50;1.70;;;1.07;;
9256;SDS011;4665;51.368;6.782;2022-10-16T10:20:25;0.80;;;0.80;;
9256;SDS011;4665;51.368;6.782;2022-10-16T10:22:59;1.53;;;1.20;;
9256;SDS011;4665;51.368;6.782;2022-10-16T10:25:32;3.63;;;1.17;;
9256;SDS011;4665;51.368;6.782;2022-10-16T10:31:02;1.10;;;0.80;;
9256;SDS011;4665;51.368;6.782;2022-10-16T10:36:05;2.43;;;1.03;;
9256;SDS011;4665;51.368;6.782;2022-10-16T10:47:37;1.80;;;0.80;;
9256;SDS011;4665;51.368;6.782;2022-10-16T11:01:34;0.80;;;0.80;;
9256;SDS011;4665;51.368;6.782;2022-10-16T11:07:11;0.87;;;0.87;;
9256;SDS011;4665;51.368;6.782;2022-10-16T11:09:52;1.20;;;1.10;;
9256;SDS011;4665;51.368;6.782;2022-10-16T11:12:27;2.50;;;1.10;;
9256;SDS011;4665;51.368;6.782;2022-10-16T11:15:17;1.93;;;0.90;;
9256;SDS011;4665;51.368;6.782;2022-10-16T11:17:57;1.77;;;0.90;;
9256;SDS011;4665;51.368;6.782;2022-10-16T11:23:46;4.03;;;1.20;;
9256;SDS011;4665;51.368;6.782;2022-10-16T11:25:56;3.00;;;1.07;;
9256;SDS011;4665;51.368;6.782;2022-10-16T11:28:27;1.63;;;1.10;;
9256;SDS011;4665;51.368;6.782;2022-10-16T11:39:12;1.47;;;0.93;;
9256;SDS011;4665;51.368;6.782;2022-10-16T11:49:49;2.23;;;1.43;;
9256;SDS011;4665;51.368;6.782;2022-10-16T11:52:52;1.10;;;1.00;;
9256;SDS011;4665;51.368;6.782;2022-10-16T11:55:16;1.57;;;0.90;;
9256;SDS011;4665;51.368;6.782;2022-10-16T11:57:47;2.23;;;1.40;;
9256;SDS011;4665;51.368;6.782;2022-10-16T12:00:21;4.67;;;1.40;;
9256;SDS011;4665;51.368;6.782;2022-10-16T12:02:52;4.00;;;1.00;;
9256;SDS011;4665;51.368;6.782;2022-10-16T12:08:19;3.40;;;1.40;;
9256;SDS011;4665;51.368;6.782;2022-10-16T12:10:46;2.10;;;1.13;;
9256;SDS011;4665;51.368;6.782;2022-10-16T12:18:30;1.43;;;1.10;;
9256;SDS011;4665;51.368;6.782;2022-10-16T12:20:56;2.00;;;1.10;;
9256;SDS011;4665;51.368;6.782;2022-10-16T12:23:24;1.67;;;1.10;;
9256;SDS011;4665;51.368;6.782;2022-10-16T12:25:54;5.63;;;1.27;;
9256;SDS011;4665;51.368;6.782;2022-10-16T12:28:21;3.13;;;1.00;;
9256;SDS011;4665;51.368;6.782;2022-10-16T12:30:57;1.77;;;0.97;;
9256;SDS011;4665;51.368;6.782;2022-10-16T12:33:25;2.50;;;1.13;;
9256;SDS011;4665;51.368;6.782;2022-10-16T12:35:52;1.00;;;0.87;;
9256;SDS011;4665;51.368;6.782;2022-10-16T12:38:20;2.57;;;1.17;;
9256;SDS011;4665;51.368;6.782;2022-10-16T12:41:04;3.57;;;1.00;;
9256;SDS011;4665;51.368;6.782;2022-10-16T12:48:41;1.67;;;1.20;;
9256;SDS011;4665;51.368;6.782;2022-10-16T12:54:15;2.77;;;1.20;;
9256;SDS011;4665;51.368;6.782;2022-10-16T13:16:09;2.67;;;1.03;;
9256;SDS011;4665;51.368;6.782;2022-10-16T13:21:43;3.60;;;2.27;;
9256;SDS011;4665;51.368;6.782;2022-10-16T13:30:24;3.20;;;0.83;;
9256;SDS011;4665;51.368;6.782;2022-10-16T13:38:47;1.63;;;0.70;;
9256;SDS011;4665;51.368;6.782;2022-10-16T13:41:14;1.33;;;0.73;;
9256;SDS011;4665;51.368;6.782;2022-10-16T13:43:51;3.37;;;1.03;;
9256;SDS011;4665;51.368;6.782;2022-10-16T13:46:19;2.53;;;0.90;;
9256;SDS011;4665;51.368;6.782;2022-10-16T13:49:01;3.40;;;0.67;;
9256;SDS011;4665;51.368;6.782;2022-10-16T13:51:54;2.30;;;1.17;;
9256;SDS011;4665;51.368;6.782;2022-10-16T13:54:24;2.17;;;0.90;;
9256;SDS011;4665;51.368;6.782;2022-10-16T13:56:51;1.80;;;0.60;;
9256;SDS011;4665;51.368;6.782;2022-10-16T14:01:48;1.00;;;0.60;;
9256;SDS011;4665;51.368;6.782;2022-10-16T14:04:15;1.40;;;1.00;;
9256;SDS011;4665;51.368;6.782;2022-10-16T14:06:41;1.73;;;0.90;;
9256;SDS011;4665;51.368;6.782;2022-10-16T14:09:19;0.97;;;0.60;;
9256;SDS011;4665;51.368;6.782;2022-10-16T14:11:49;1.30;;;0.60;;
9256;SDS011;4665;51.368;6.782;2022-10-16T14:14:20;1.30;;;0.80;;
9256;SDS011;4665;51.368;6.782;2022-10-16T14:16:46;0.87;;;0.63;;
9256;SDS011;4665;51.368;6.782;2022-10-16T14:19:13;0.73;;;0.53;;
9256;SDS011;4665;51.368;6.782;2022-10-16T14:21:43;0.67;;;0.57;;
9256;SDS011;4665;51.368;6.782;2022-10-16T14:24:12;0.87;;;0.57;;
9256;SDS011;4665;51.368;6.782;2022-10-16T14:26:42;0.60;;;0.60;;
9256;SDS011;4665;51.368;6.782;2022-10-16T14:29:13;0.87;;;0.40;;
9256;SDS011;4665;51.368;6.782;2022-10-16T14:31:42;1.63;;;0.80;;
9256;SDS011;4665;51.368;6.782;2022-10-16T14:34:22;1.33;;;0.70;;
9256;SDS011;4665;51.368;6.782;2022-10-16T14:36:52;2.33;;;0.70;;
9256;SDS011;4665;51.368;6.782;2022-10-16T14:39:19;1.27;;;0.87;;
9256;SDS011;4665;51.368;6.782;2022-10-16T14:41:47;1.43;;;0.57;;
9256;SDS011;4665;51.368;6.782;2022-10-16T14:44:19;0.93;;;0.80;;
9256;SDS011;4665;51.368;6.782;2022-10-16T14:46:52;1.23;;;0.67;;
9256;SDS011;4665;51.368;6.782;2022-10-16T14:49:18;0.30;;;0.30;;
9256;SDS011;4665;51.368;6.782;2022-10-16T14:51:45;1.20;;;0.73;;
9256;SDS011;4665;51.368;6.782;2022-10-16T14:54:13;0.83;;;0.70;;
9256;SDS011;4665;51.368;6.782;2022-10-16T14:59:22;0.93;;;0.60;;
9256;SDS011;4665;51.368;6.782;2022-10-16T15:01:49;0.53;;;0.53;;
9256;SDS011;4665;51.368;6.782;2022-10-16T15:04:18;0.80;;;0.80;;
9256;SDS011;4665;51.368;6.782;2022-10-16T15:06:43;0.43;;;0.43;;
9256;SDS011;4665;51.368;6.782;2022-10-16T15:09:09;0.93;;;0.63;;
9256;SDS011;4665;51.368;6.782;2022-10-16T15:11:34;0.73;;;0.70;;
9256;SDS011;4665;51.368;6.782;2022-10-16T15:14:00;2.87;;;1.40;;
9256;SDS011;4665;51.368;6.782;2022-10-16T15:16:26;2.00;;;0.77;;
9256;SDS011;4665;51.368;6.782;2022-10-16T15:18:51;1.03;;;0.97;;
9256;SDS011;4665;51.368;6.782;2022-10-16T15:21:22;1.20;;;1.20;;
9256;SDS011;4665;51.368;6.782;2022-10-16T15:23:51;1.20;;;1.20;;
9256;SDS011;4665;51.368;6.782;2022-10-16T15:26:17;1.37;;;1.27;;
9256;SDS011;4665;51.368;6.782;2022-10-16T15:28:42;1.10;;;1.10;;
9256;SDS011;4665;51.368;6.782;2022-10-16T15:31:07;2.53;;;1.20;;
9256;SDS011;4665;51.368;6.782;2022-10-16T15:33:33;1.20;;;1.13;;
9256;SDS011;4665;51.368;6.782;2022-10-16T15:36:00;1.03;;;1.00;;
9256;SDS011;4665;51.368;6.782;2022-10-16T15:38:26;1.60;;;1.50;;
9256;SDS011;4665;51.368;6.782;2022-10-16T15:40:53;2.83;;;2.63;;
9256;SDS011;4665;51.368;6.782;2022-10-16T15:43:18;3.50;;;3.20;;
9256;SDS011;4665;51.368;6.782;2022-10-16T15:45:44;2.27;;;1.97;;
9256;SDS011;4665;51.368;6.782;2022-10-16T15:48:19;2.00;;;1.30;;
9256;SDS011;4665;51.368;6.782;2022-10-16T15:50:45;1.40;;;1.37;;
9256;SDS011;4665;51.368;6.782;2022-10-16T15:53:10;1.63;;;1.30;;
9256;SDS011;4665;51.368;6.782;2022-10-16T15:55:35;1.40;;;1.30;;
9256;SDS011;4665;51.368;6.782;2022-10-16T15:58:02;0.93;;;0.93;;
9256;SDS011;4665;51.368;6.782;2022-10-16T16:00:31;1.53;;;1.00;;
9256;SDS011;4665;51.368;6.782;2022-10-16T16:02:57;1.07;;;0.90;;
9256;SDS011;4665;51.368;6.782;2022-10-16T16:05:25;0.93;;;0.90;;
9256;SDS011;4665;51.368;6.782;2022-10-16T16:07:50;1.30;;;1.20;;
9256;SDS011;4665;51.368;6.782;2022-10-16T16:10:16;1.30;;;1.20;;
9256;SDS011;4665;51.368;6.782;2022-10-16T16:12:42;1.97;;;0.87;;
9256;SDS011;4665;51.368;6.782;2022-10-16T16:15:08;1.73;;;1.30;;
9256;SDS011;4665;51.368;6.782;2022-10-16T16:17:35;1.00;;;1.00;;
9256;SDS011;4665;51.368;6.782;2022-10-16T16:20:01;1.50;;;1.40;;
9256;SDS011;4665;51.368;6.782;2022-10-16T16:22:31;1.70;;;1.40;;
9256;SDS011;4665;51.368;6.782;2022-10-16T16:24:56;3.17;;;1.50;;
9256;SDS011;4665;51.368;6.782;2022-10-16T16:27:22;1.50;;;1.40;;
9256;SDS011;4665;51.368;6.782;2022-10-16T16:29:49;1.87;;;1.50;;
9256;SDS011;4665;51.368;6.782;2022-10-16T16:32:17;2.20;;;1.63;;
9256;SDS011;4665;51.368;6.782;2022-10-16T16:34:43;1.50;;;1.40;;
9256;SDS011;4665;51.368;6.782;2022-10-16T16:37:08;2.13;;;1.10;;
9256;SDS011;4665;51.368;6.782;2022-10-16T16:39:34;3.33;;;1.30;;
9256;SDS011;4665;51.368;6.782;2022-10-16T16:41:59;2.47;;;1.17;;
9256;SDS011;4665;51.368;6.782;2022-10-16T16:44:25;0.80;;;0.80;;
9256;SDS011;4665;51.368;6.782;2022-10-16T16:46:51;1.27;;;1.00;;
9256;SDS011;4665;51.368;6.782;2022-10-16T16:49:16;1.20;;;1.20;;
9256;SDS011;4665;51.368;6.782;2022-10-16T16:51:42;3.53;;;1.40;;
9256;SDS011;4665;51.368;6.782;2022-10-16T16:54:09;2.47;;;0.97;;
9256;SDS011;4665;51.368;6.782;2022-10-16T16:56:35;1.07;;;1.07;;
9256;SDS011;4665;51.368;6.782;2022-10-16T16:59:00;1.27;;;1.00;;
9256;SDS011;4665;51.368;6.782;2022-10-16T17:01:27;3.57;;;1.07;;
9256;SDS011;4665;51.368;6.782;2022-10-16T17:03:53;1.23;;;1.07;;
9256;SDS011;4665;51.368;6.782;2022-10-16T17:06:21;2.37;;;1.30;;
9256;SDS011;4665;51.368;6.782;2022-10-16T17:08:50;3.83;;;1.30;;
9256;SDS011;4665;51.368;6.782;2022-10-16T17:11:21;2.43;;;1.33;;
9256;SDS011;4665;51.368;6.782;2022-10-16T17:13:48;1.63;;;1.53;;
9256;SDS011;4665;51.368;6.782;2022-10-16T17:16:15;3.13;;;1.70;;
9256;SDS011;4665;51.368;6.782;2022-10-16T17:18:41;1.73;;;1.63;;
9256;SDS011;4665;51.368;6.782;2022-10-16T17:21:07;1.70;;;1.60;;
9256;SDS011;4665;51.368;6.782;2022-10-16T17:23:34;4.20;;;1.60;;
9256;SDS011;4665;51.368;6.782;2022-10-16T17:26:15;1.93;;;1.30;;
9256;SDS011;4665;51.368;6.782;2022-10-16T17:28:41;1.40;;;1.30;;
9256;SDS011;4665;51.368;6.782;2022-10-16T17:31:15;1.50;;;1.40;;
9256;SDS011;4665;51.368;6.782;2022-10-16T17:33:43;1.87;;;1.77;;
9256;SDS011;4665;51.368;6.782;2022-10-16T17:36:09;4.47;;;2.33;;
9256;SDS011;4665;51.368;6.782;2022-10-16T17:38:35;2.33;;;2.13;;
9256;SDS011;4665;51.368;6.782;2022-10-16T17:43:47;1.70;;;1.53;;
9256;SDS011;4665;51.368;6.782;2022-10-16T17:46:14;1.60;;;1.50;;
9256;SDS011;4665;51.368;6.782;2022-10-16T17:48:43;3.40;;;2.20;;
9256;SDS011;4665;51.368;6.782;2022-10-16T17:51:11;1.93;;;1.83;;